Stuart, IA (50250)

1:41 AM CDT on September 25, 2016 (GMT -0500)
Sw Stuart | | Change Station

Elev 1220 ft 41.50 °N, 94.33 °W | Updated 44 seconds ago

Light Rain
Light Rain
67.5 °F
Feels Like 67.5 °F
N
2.7
Wind Variable Wind from SE

Today
High -- | Low -- °F
--% Chance of Precip.
Yesterday
High -- | Low -- °F
Precip. -- in
Pressure 29.99 in
Visibility 7.0 miles
Clouds Mostly Cloudy 300 ft
Overcast 700 ft
Dew Point 66 °F
Humidity 94%
Rainfall 0.09 in
Snow Depth Not available.
7:08 AM 7:08 PM
Waning Crescent, 30% visible
METAR KPRO 250635Z AUTO 15008KT 7SM -RA BKN003 OVC007 21/21 A2999 RMK AO2 P0001 T02050205
Pressure 29.99 in
Visibility 7.0 miles
Clouds Mostly Cloudy 300 ft
Overcast 700 ft
Dew Point 66 °F
Humidity 94%
Rainfall 0.09 in
Snow Depth Not available.
7:08 AM 7:08 PM
Waning Crescent, 30% visible
METAR KPRO 250635Z AUTO 15008KT 7SM -RA BKN003 OVC007 21/21 A2999 RMK AO2 P0001 T02050205

10-Day Weather Forecast

Almanac

Astronomy

Sep. 25, 2016 Rise Set
Actual Time
Civil Twilight
Nautical Twilight
Astronomical Twilight
Moon
Length of Visible Light
Length of Day
Tomorrow will be .
, % of the Moon is Illuminated

Today's Extremes

State Highs State Lows

Community

WunderPhotos

Upload Photos

1,941,554 photos uploaded!

WunderBlog® & News

Nearby

Air Quality

  Air Quality AQ Index Pollutant
Not available.

Snow Depth

Station Depth Elevation

Earthquake Activity

City Distance Mag. Time & Date
Minimum magnitude displayed is 2.5.

Coastal Water Temperatures

Place Temperature

Stations

Nearby Weather Stations

Station Location Temp. Windchill Dew Point Humidity Wind Precip. Elev Updated Type
                   

Watches & Warnings

There are currently no watches in effect.